Time;durP1;ratioP1;P1;durP2;ratioP2;P2;SDS_P1;SDS_P2;PMS_P1;PMS_P2;Temp;Humidity;BMP_temperature;BMP_pressure;BME280_temperature;BME280_humidity;BME280_pressure;Samples;Min_cycle;Max_cycle;Signal;HPM_P1;HPM_P2
2021/12/06 00:02:19;;;;;;;56.80;23.60;;;;;;;-2.25;100.00;98967.48;1606167;87;21121;-73
2021/12/06 00:04:51;;;;;;;51.37;21.90;;;;;;;-2.26;100.00;98969.36;1622742;87;21173;-75
2021/12/06 00:07:23;;;;;;;53.87;22.90;;;;;;;-2.24;100.00;98967.78;1654476;85;21619;-75
2021/12/06 00:09:56;;;;;;;59.35;24.65;;;;;;;-2.23;100.00;98968.88;1648098;85;21058;-75
2021/12/06 00:12:28;;;;;;;50.40;21.55;;;;;;;-2.22;100.00;98966.47;1652541;85;21047;-73
2021/12/06 00:15:01;;;;;;;52.80;23.02;;;;;;;-2.20;100.00;98964.87;1670085;83;21029;-73
2021/12/06 00:17:37;;;;;;;57.03;24.05;;;;;;;-2.18;100.00;98966.27;1653899;85;21074;-73
2021/12/06 00:20:06;;;;;;;53.90;22.40;;;;;;;-2.19;100.00;98971.88;1670395;85;21001;-73
2021/12/06 00:22:34;;;;;;;50.05;21.97;;;;;;;-2.19;100.00;98970.01;1658512;84;21017;-74
2021/12/06 00:25:09;;;;;;;53.85;23.15;;;;;;;-2.19;100.00;98967.85;1664643;84;21112;-74
2021/12/06 00:27:39;;;;;;;48.33;21.62;;;;;;;-2.19;100.00;98959.78;1656962;85;21610;-74
2021/12/06 00:30:16;;;;;;;55.48;24.15;;;;;;;-2.18;100.00;98953.34;1665927;85;21963;-74
2021/12/06 00:32:43;;;;;;;50.25;22.22;;;;;;;-2.16;100.00;98957.95;1663570;85;21009;-74
2021/12/06 00:35:23;;;;;;;47.98;21.52;;;;;;;-2.11;100.00;98962.05;1650402;85;21582;-74
2021/12/06 00:37:55;;;;;;;48.75;21.37;;;;;;;-2.11;100.00;98957.48;1662166;84;21192;-74
2021/12/06 00:40:30;;;;;;;53.13;21.68;;;;;;;-2.12;100.00;98965.80;1671471;85;21037;-74
2021/12/06 00:42:58;;;;;;;47.23;20.52;;;;;;;-2.14;100.00;98962.02;1655934;85;21271;-74
2021/12/06 00:45:24;;;;;;;49.48;22.37;;;;;;;-2.15;100.00;98959.05;1655147;85;21132;-74
2021/12/06 00:47:55;;;;;;;55.20;23.30;;;;;;;-2.15;100.00;98965.77;1657857;85;21538;-74
2021/12/06 00:50:32;;;;;;;44.95;20.37;;;;;;;-2.15;100.00;98964.95;1663533;85;21179;-74
2021/12/06 00:52:58;;;;;;;55.25;22.98;;;;;;;-2.15;100.00;98962.27;1656985;85;21159;-75
2021/12/06 00:55:27;;;;;;;48.48;21.37;;;;;;;-2.16;100.00;98961.45;1657215;85;21130;-74
2021/12/06 00:57:59;;;;;;;49.73;22.87;;;;;;;-2.17;100.00;98957.13;1658431;84;21538;-74
2021/12/06 01:00:37;;;;;;;52.88;23.67;;;;;;;-2.17;100.00;98951.75;1653811;85;22242;-74
2021/12/06 01:03:09;;;;;;;52.98;23.00;;;;;;;-2.15;100.00;98952.85;1657915;85;21018;-74
2021/12/06 01:05:41;;;;;;;51.65;22.02;;;;;;;-2.15;100.00;98945.59;1648421;84;21122;-73
2021/12/06 01:08:10;;;;;;;47.90;21.55;;;;;;;-2.16;100.00;98938.59;1657419;84;21179;-74
2021/12/06 01:10:41;;;;;;;47.53;21.90;;;;;;;-2.14;100.00;98941.84;1653077;85;23234;-73
2021/12/06 01:13:10;;;;;;;47.55;21.77;;;;;;;-2.14;100.00;98953.13;1654488;85;21147;-74
2021/12/06 01:15:45;;;;;;;51.08;22.30;;;;;;;-2.13;100.00;98942.13;1661015;85;21108;-73
2021/12/06 01:18:16;;;;;;;52.43;22.40;;;;;;;-2.10;100.00;98946.20;1660601;85;21017;-74
2021/12/06 01:21:00;;;;;;;50.52;22.45;;;;;;;-2.11;100.00;98942.70;1657388;85;21182;-74
2021/12/06 01:23:28;;;;;;;53.70;23.25;;;;;;;-2.08;100.00;98938.17;1679255;83;21589;-73
2021/12/06 01:26:24;;;;;;;54.38;23.32;;;;;;;-2.07;100.00;98939.80;1701604;83;21037;-72
2021/12/06 01:39:18;;;;;;;51.83;21.48;;;;;;;-2.03;100.00;98920.75;1677567;83;21070;-73
2021/12/06 01:41:54;;;;;;;50.90;21.15;;;;;;;-2.02;100.00;98921.56;1688789;84;21026;-73
2021/12/06 01:44:28;;;;;;;48.65;19.87;;;;;;;-2.03;100.00;98915.38;1697318;84;21136;-73
2021/12/06 01:47:10;;;;;;;48.33;21.50;;;;;;;-2.04;100.00;98919.66;1675240;84;21558;-71
2021/12/06 01:49:43;;;;;;;50.45;21.73;;;;;;;-2.04;100.00;98919.66;1680780;83;21653;-71
2021/12/06 01:52:20;;;;;;;51.55;21.27;;;;;;;-2.04;100.00;98911.05;1660122;85;20972;-71
2021/12/06 01:54:52;;;;;;;50.88;22.50;;;;;;;-2.03;100.00;98907.84;1694486;83;21577;-72
2021/12/06 01:57:26;;;;;;;51.77;21.68;;;;;;;-2.01;100.00;98902.48;1667416;85;20943;-73
2021/12/06 01:59:57;;;;;;;51.08;20.52;;;;;;;-1.99;100.00;98904.94;1661867;83;21779;-73
2021/12/06 02:02:26;;;;;;;52.83;22.48;;;;;;;-1.98;100.00;98903.05;1695439;84;20907;-72
2021/12/06 02:04:59;;;;;;;50.28;21.75;;;;;;;-1.97;100.00;98902.80;1701848;83;21036;-71
2021/12/06 02:07:30;;;;;;;54.40;21.75;;;;;;;-1.96;100.00;98902.27;1700532;83;20886;-71
2021/12/06 02:10:03;;;;;;;51.30;20.68;;;;;;;-1.96;100.00;98899.58;1698698;83;21494;-71
2021/12/06 02:12:32;;;;;;;47.88;19.10;;;;;;;-1.95;100.00;98900.68;1682632;83;21786;-72
2021/12/06 02:15:19;;;;;;;49.73;21.12;;;;;;;-1.95;100.00;98897.98;1674124;83;21066;-74
2021/12/06 02:17:53;;;;;;;51.50;23.83;;;;;;;-1.94;100.00;98902.84;1699694;83;21032;-74
2021/12/06 02:20:26;;;;;;;46.45;21.20;;;;;;;-1.92;100.00;98902.06;1668516;83;20950;-73
2021/12/06 02:22:50;;;;;;;45.10;20.23;;;;;;;-1.88;100.00;98903.19;1635428;85;21567;-74
2021/12/06 02:25:19;;;;;;;51.28;22.27;;;;;;;-1.88;100.00;98904.00;1646845;87;22166;-74
2021/12/06 02:27:50;;;;;;;47.70;19.52;;;;;;;-1.88;100.00;98901.84;1635976;86;21504;-74
2021/12/06 02:30:20;;;;;;;49.27;20.23;;;;;;;-1.88;100.00;98905.34;1635335;87;20990;-74
2021/12/06 02:32:56;;;;;;;48.40;21.05;;;;;;;-1.87;100.00;98906.97;1636620;87;21016;-74
2021/12/06 02:35:25;;;;;;;46.02;19.98;;;;;;;-1.85;100.00;98906.72;1636344;86;21021;-75
2021/12/06 02:37:55;;;;;;;44.67;19.67;;;;;;;-1.83;100.00;98907.28;1637934;87;22195;-77
2021/12/06 02:40:28;;;;;;;44.20;20.12;;;;;;;-1.82;100.00;98908.91;1643710;86;20997;-77
2021/12/06 02:42:57;;;;;;;49.45;21.00;;;;;;;-1.81;100.00;98911.88;1643428;87;21021;-77
2021/12/06 02:45:31;;;;;;;43.75;20.32;;;;;;;-1.80;100.00;98909.47;1624756;87;21524;-76
2021/12/06 02:48:00;;;;;;;43.98;20.23;;;;;;;-1.83;100.00;98909.44;1638189;87;21006;-78
2021/12/06 02:50:34;;;;;;;53.70;22.87;;;;;;;-1.82;100.00;98909.72;1663783;85;22636;-78
2021/12/06 02:53:05;;;;;;;45.83;20.25;;;;;;;-1.81;100.00;98914.57;1668699;84;21068;-78
2021/12/06 02:55:39;;;;;;;;;;;;;;;-1.81;100.00;98916.73;1652277;85;20946;-78
2021/12/06 02:58:43;;;;;;;48.58;20.90;;;;;;;-1.79;100.00;98924.02;1678595;85;20128;-77
2021/12/06 03:01:04;;;;;;;49.08;20.37;;;;;;;-1.78;100.00;98926.18;1650593;85;20941;-76
2021/12/06 03:03:32;;;;;;;50.60;22.62;;;;;;;-1.79;100.00;98925.37;1660736;84;21806;-76
2021/12/06 03:06:02;;;;;;;50.78;21.07;;;;;;;-1.78;100.00;98916.77;1663239;85;21261;-76
2021/12/06 03:08:53;;;;;;;50.52;22.30;;;;;;;-1.78;100.00;98917.58;1663496;84;21130;-76
2021/12/06 03:11:29;;;;;;;39.40;18.15;;;;;;;-1.77;100.00;98921.08;1665762;85;21027;-76
2021/12/06 03:14:01;;;;;;;49.65;20.68;;;;;;;-1.77;100.00;98919.73;1670678;85;21035;-76
2021/12/06 03:16:36;;;;;;;56.18;22.82;;;;;;;-1.79;100.00;98920.52;1656793;85;21809;-75
2021/12/06 03:19:07;;;;;;;47.90;21.90;;;;;;;-1.79;100.00;98925.90;1648637;85;21000;-75
2021/12/06 03:21:39;;;;;;;50.92;21.77;;;;;;;-1.78;100.00;98927.52;1657830;85;21032;-74
2021/12/06 03:24:07;;;;;;;51.25;22.62;;;;;;;-1.78;100.00;98918.92;1658446;85;20997;-74
2021/12/06 03:26:39;;;;;;;51.65;21.70;;;;;;;-1.76;100.00;98914.64;1654821;85;21016;-74
2021/12/06 03:29:10;;;;;;;49.18;20.45;;;;;;;-1.76;100.00;98914.11;1654301;85;21546;-75
2021/12/06 03:31:39;;;;;;;50.15;19.73;;;;;;;-1.76;100.00;98914.11;1655883;85;21437;-74
2021/12/06 03:34:09;;;;;;;54.27;22.98;;;;;;;-1.77;100.00;98910.31;1653980;85;20953;-75
2021/12/06 03:36:40;;;;;;;48.58;21.65;;;;;;;-1.76;100.00;98906.56;1654198;85;20989;-75
2021/12/06 03:39:23;;;;;;;51.60;23.55;;;;;;;-1.75;100.00;98908.19;1662509;85;21081;-75
2021/12/06 03:41:49;;;;;;;51.73;20.68;;;;;;;-1.75;100.00;98912.23;1657061;85;21167;-75
2021/12/06 03:44:12;;;;;;;52.50;21.80;;;;;;;-1.74;100.00;98907.12;1655674;85;21508;-74
2021/12/06 03:46:40;;;;;;;50.05;22.35;;;;;;;-1.74;100.00;98897.17;1659044;85;20992;-75
2021/12/06 03:49:13;;;;;;;52.78;21.57;;;;;;;-1.74;100.00;98905.78;1665474;85;21025;-75
2021/12/06 03:51:46;;;;;;;47.98;20.75;;;;;;;-1.76;100.00;98905.22;1655025;85;36068;-74
2021/12/06 03:54:22;;;;;;;51.80;22.17;;;;;;;-1.74;100.00;98909.81;1664829;85;21213;-74
2021/12/06 03:56:50;;;;;;;56.20;22.30;;;;;;;-1.75;100.00;98907.66;1659405;85;21437;-74
2021/12/06 03:59:16;;;;;;;51.25;23.15;;;;;;;-1.75;100.00;98898.23;1657808;85;21073;-74
2021/12/06 04:01:48;;;;;;;54.10;22.35;;;;;;;-1.74;100.00;98899.05;1650253;85;21038;-74
2021/12/06 04:04:21;;;;;;;;;;;;;;;-1.74;100.00;98898.52;1657892;85;21022;-74
2021/12/06 04:06:51;;;;;;;51.98;21.90;;;;;;;-1.73;100.00;98904.15;1662519;85;20991;-74
2021/12/06 04:09:23;;;;;;;55.58;22.60;;;;;;;-1.74;100.00;98907.94;1665889;85;21038;-74
2021/12/06 04:11:51;;;;;;;50.28;22.70;;;;;;;-1.72;100.00;98911.69;1660469;85;21096;-74
2021/12/06 04:14:25;;;;;;;54.77;23.22;;;;;;;-1.74;100.00;98906.59;1658387;85;21131;-74
2021/12/06 04:16:55;;;;;;;52.38;22.17;;;;;;;-1.73;100.00;98908.19;1660980;84;21187;-75
2021/12/06 04:19:23;;;;;;;53.48;21.27;;;;;;;-1.72;100.00;98899.58;1661399;85;21766;-75
2021/12/06 04:21:56;;;;;;;50.43;22.27;;;;;;;-1.71;100.00;98897.17;1647107;84;20901;-75
2021/12/06 04:24:25;;;;;;;50.03;20.80;;;;;;;-1.69;100.00;98897.20;1674541;84;21390;-74
2021/12/06 04:27:00;;;;;;;56.68;22.52;;;;;;;-1.68;100.00;98898.83;1672890;83;21132;-75
2021/12/06 04:29:27;;;;;;;55.98;22.55;;;;;;;-1.66;100.00;98903.96;1647813;85;21523;-74
2021/12/06 04:31:59;;;;;;;48.23;21.07;;;;;;;-1.66;100.00;98904.77;1652846;85;20993;-74
2021/12/06 04:34:27;;;;;;;59.13;24.47;;;;;;;-1.64;100.00;98911.25;1661270;84;21573;-75
2021/12/06 04:36:55;;;;;;;57.33;23.12;;;;;;;-1.62;100.00;98910.47;1666799;85;22084;-76
2021/12/06 04:39:28;;;;;;;56.98;22.02;;;;;;;-1.61;100.00;98913.97;1657918;85;21355;-75
2021/12/06 04:42:01;;;;;;;49.93;21.80;;;;;;;-1.61;100.00;98916.66;1661961;85;21065;-75
2021/12/06 04:44:30;;;;;;;;;;;;;;;-1.61;100.00;98914.78;1672823;85;21096;-75
2021/12/06 04:46:59;;;;;;;59.05;21.95;;;;;;;-1.60;100.00;98915.06;1661340;85;20426;-74
2021/12/06 04:49:29;;;;;;;52.05;22.05;;;;;;;-1.60;100.00;98921.80;1653420;85;21136;-75
2021/12/06 04:51:57;;;;;;;55.45;21.35;;;;;;;-1.59;100.00;98928.80;1657712;85;21539;-74
2021/12/06 04:54:30;;;;;;;52.55;22.35;;;;;;;-1.57;100.00;98933.94;1655408;85;20986;-74
2021/12/06 04:57:07;;;;;;;50.38;21.33;;;;;;;-1.55;100.00;98925.08;1669133;83;21147;-74
2021/12/06 04:59:47;;;;;;;59.23;23.15;;;;;;;-1.54;100.00;98922.67;1652313;85;21593;-74
2021/12/06 05:02:18;;;;;;;57.67;23.55;;;;;;;-1.53;100.00;98922.95;1663986;85;21084;-74
2021/12/06 05:04:47;;;;;;;58.02;23.27;;;;;;;-1.54;100.00;98926.17;1657019;85;21013;-75
2021/12/06 05:07:25;;;;;;;52.75;22.10;;;;;;;-1.54;100.00;98928.05;1660169;85;20985;-74
2021/12/06 05:09:58;;;;;;;54.88;22.37;;;;;;;-1.52;100.00;98928.61;1655835;85;21155;-76
2021/12/06 05:12:35;;;;;;;58.02;23.60;;;;;;;-1.53;100.00;98919.72;1651306;85;20957;-75
2021/12/06 05:15:07;;;;;;;60.30;23.70;;;;;;;-1.51;100.00;98922.16;1663918;85;21505;-75
2021/12/06 05:17:37;;;;;;;72.12;26.82;;;;;;;-1.51;100.00;98918.13;1652423;85;21591;-75
2021/12/06 05:20:07;;;;;;;65.83;25.30;;;;;;;-1.52;100.00;98913.27;1659340;84;21197;-75
2021/12/06 05:22:36;;;;;;;62.65;25.65;;;;;;;-1.51;100.00;98918.13;1657897;85;21206;-76
2021/12/06 05:25:11;;;;;;;60.00;23.25;;;;;;;-1.49;100.00;98923.54;1657222;85;20936;-75
2021/12/06 05:27:39;;;;;;;60.30;23.87;;;;;;;-1.49;100.00;98930.80;1662721;85;20948;-73
2021/12/06 05:30:12;;;;;;;61.50;24.65;;;;;;;-1.48;100.00;98928.39;1654021;85;20953;-75
2021/12/06 05:32:43;;;;;;;;;;;;;;;-1.48;100.00;98923.82;1657956;85;21071;-75
2021/12/06 05:35:10;;;;;;;65.45;24.05;;;;;;;-1.45;100.00;98924.66;1657958;85;21510;-74
2021/12/06 05:37:45;;;;;;;65.25;25.23;;;;;;;-1.45;100.00;98926.00;1660941;85;20937;-74
2021/12/06 05:40:16;;;;;;;67.32;25.97;;;;;;;-1.43;100.00;98919.84;1655685;85;21087;-74
2021/12/06 05:42:46;;;;;;;51.73;21.35;;;;;;;-1.40;100.00;98922.02;1656938;85;20934;-74
2021/12/06 05:45:17;;;;;;;61.65;22.65;;;;;;;-1.36;100.00;98927.72;1646907;85;21030;-74
2021/12/06 05:47:47;;;;;;;59.03;25.25;;;;;;;-1.35;100.00;98929.34;1655730;85;21206;-75
2021/12/06 05:50:24;;;;;;;56.15;22.60;;;;;;;-1.35;100.00;98930.69;1660661;85;20973;-75
2021/12/06 05:52:55;;;;;;;60.58;23.70;;;;;;;-1.35;100.00;98933.38;1657945;85;20909;-76
2021/12/06 05:55:25;;;;;;;57.67;24.27;;;;;;;-1.36;100.00;98933.91;1657737;85;21578;-76
2021/12/06 05:57:51;;;;;;;58.08;24.90;;;;;;;-1.36;100.00;98932.57;1658767;85;21064;-73
2021/12/06 06:00:20;;;;;;;59.33;23.32;;;;;;;-1.35;100.00;98932.85;1667330;85;21538;-74
2021/12/06 06:02:48;;;;;;;58.40;24.43;;;;;;;-1.32;100.00;98931.53;1657655;85;20913;-74
2021/12/06 06:05:15;;;;;;;58.70;24.15;;;;;;;-1.29;100.00;98942.33;1637627;86;21028;-74
2021/12/06 06:07:43;;;;;;;58.83;24.05;;;;;;;-1.27;100.00;98933.47;1627438;86;20997;-73
2021/12/06 06:10:09;;;;;;;63.75;24.67;;;;;;;-1.22;100.00;98932.17;1636369;86;20986;-73
2021/12/06 06:12:35;;;;;;;61.00;25.55;;;;;;;-1.22;100.00;98937.56;1630871;86;21076;-73
2021/12/06 06:15:03;;;;;;;58.40;24.85;;;;;;;-1.21;100.00;98951.30;1633976;86;21080;-73
2021/12/06 06:17:38;;;;;;;59.90;23.62;;;;;;;-1.19;100.00;98949.17;1649196;86;20964;-73
2021/12/06 06:19:58;;;;;;;63.90;24.43;;;;;;;-1.19;100.00;98945.12;1643874;86;20998;-73
2021/12/06 06:22:25;;;;;;;59.20;24.00;;;;;;;-1.17;100.00;98948.38;1636431;86;21029;-74
2021/12/06 06:24:51;;;;;;;54.70;23.02;;;;;;;-1.16;100.00;98948.66;1631489;86;21120;-74
2021/12/06 06:27:18;;;;;;;56.23;23.32;;;;;;;-1.11;100.00;98955.42;1656713;85;20895;-74
2021/12/06 06:29:44;;;;;;;56.70;23.15;;;;;;;-1.08;100.00;98945.48;1658795;85;20956;-74
2021/12/06 06:32:11;;;;;;;54.03;23.35;;;;;;;-1.09;100.00;98949.24;1662984;85;20965;-76
2021/12/06 06:34:39;;;;;;;50.70;22.13;;;;;;;-1.09;100.00;98962.18;1659697;85;20953;-76
2021/12/06 06:37:06;;;;;;;56.05;25.10;;;;;;;-1.09;100.00;98958.14;1657657;85;21085;-76
2021/12/06 06:39:32;;;;;;;57.25;24.32;;;;;;;-1.08;100.00;98957.61;1659643;85;21551;-72
2021/12/06 06:41:59;;;;;;;58.58;24.52;;;;;;;-1.07;100.00;98959.23;1654478;85;21532;-75
2021/12/06 06:44:26;;;;;;;60.08;24.32;;;;;;;-1.07;100.00;98961.39;1657745;85;21527;-76
2021/12/06 06:46:52;;;;;;;56.75;22.67;;;;;;;-1.04;100.00;98958.73;1661322;85;20973;-75
2021/12/06 06:49:19;;;;;;;56.85;23.18;;;;;;;-1.00;100.00;98959.31;1659879;85;21110;-78
2021/12/06 06:51:46;;;;;;;56.83;23.38;;;;;;;-0.98;100.00;98942.89;1663467;85;20878;-72
2021/12/06 06:54:13;;;;;;;57.17;24.02;;;;;;;-0.95;100.00;98936.99;1657040;85;20961;-79
2021/12/06 06:56:41;;;;;;;60.88;23.00;;;;;;;-0.92;100.00;98946.45;1654398;84;20994;-72
2021/12/06 06:59:07;;;;;;;59.90;25.37;;;;;;;-0.89;100.00;98956.18;1660937;85;20913;-72
2021/12/06 07:01:34;;;;;;;68.60;30.02;;;;;;;-0.86;100.00;98957.02;1661736;84;21027;-73
2021/12/06 07:04:00;;;;;;;78.87;35.05;;;;;;;-0.83;100.00;98955.70;1658854;85;20913;-71
2021/12/06 07:06:27;;;;;;;81.37;37.73;;;;;;;-0.81;100.00;98948.98;1661056;84;21089;-66
2021/12/06 07:08:56;;;;;;;96.47;44.30;;;;;;;-0.76;100.00;98954.95;1657153;85;21033;-67
2021/12/06 07:11:25;;;;;;;73.65;34.65;;;;;;;-0.74;100.00;98953.62;1659017;85;21111;-73
2021/12/06 07:13:52;;;;;;;64.95;28.50;;;;;;;-0.72;100.00;98958.76;1672976;85;21144;-76
2021/12/06 07:16:19;;;;;;;57.98;24.37;;;;;;;-0.71;100.00;98966.59;1658548;85;21138;-73
2021/12/06 07:18:45;;;;;;;58.05;25.68;;;;;;;-0.71;100.00;98969.82;1660093;85;21133;-75
2021/12/06 07:21:12;;;;;;;58.52;25.27;;;;;;;-0.72;100.00;98973.05;1653079;85;21099;-76
2021/12/06 07:23:41;;;;;;;53.75;22.40;;;;;;;-0.71;100.00;98976.02;1667512;85;21614;-75
2021/12/06 07:26:08;;;;;;;52.33;22.25;;;;;;;-0.71;100.00;98985.45;1652847;85;21134;-79
2021/12/06 07:28:36;;;;;;;54.05;23.80;;;;;;;-0.70;100.00;98987.63;1656004;85;21072;-75
2021/12/06 07:31:06;;;;;;;60.80;26.00;;;;;;;-0.69;100.00;98984.67;1655152;85;21078;-75
2021/12/06 07:33:33;;;;;;;47.90;21.80;;;;;;;-0.67;100.00;98989.80;1659933;85;21567;-76
2021/12/06 07:36:00;;;;;;;55.45;23.00;;;;;;;-0.67;100.00;98990.61;1666798;85;21580;-76
2021/12/06 07:38:29;;;;;;;53.92;22.22;;;;;;;-0.64;100.00;99004.66;1656592;84;21650;-76
2021/12/06 07:40:56;;;;;;;50.70;21.23;;;;;;;-0.62;100.00;99000.63;1658495;85;21619;-74
2021/12/06 07:43:22;;;;;;;56.25;24.10;;;;;;;-0.59;100.00;99002.81;1658304;85;21044;-71
2021/12/06 07:45:51;;;;;;;58.25;23.70;;;;;;;-0.56;100.00;98998.77;1650373;85;21066;-71
2021/12/06 07:48:18;;;;;;;71.02;31.97;;;;;;;-0.53;100.00;98991.52;1670073;85;20994;-74
2021/12/06 07:50:49;;;;;;;73.95;34.27;;;;;;;-0.51;100.00;98990.72;1664021;85;21501;-67
2021/12/06 07:53:19;;;;;;;70.78;32.70;;;;;;;-0.50;100.00;98997.73;1661404;85;21441;-67
2021/12/06 07:55:49;;;;;;;64.37;24.45;;;;;;;-0.49;100.00;98996.67;1652369;85;21530;-68
2021/12/06 07:58:21;;;;;;;59.77;25.65;;;;;;;-0.48;100.00;99001.81;1654135;85;21223;-68
2021/12/06 08:00:51;;;;;;;60.05;24.23;;;;;;;-0.46;100.00;98997.50;1657579;85;21211;-68
2021/12/06 08:03:23;;;;;;;58.98;24.15;;;;;;;-0.40;100.00;99000.52;1655106;85;21093;-68
2021/12/06 08:05:52;;;;;;;55.98;22.95;;;;;;;-0.37;100.00;98996.78;1654636;85;20978;-68
2021/12/06 08:08:27;;;;;;;58.00;25.75;;;;;;;-0.35;100.00;98997.33;1652009;84;20929;-73
2021/12/06 08:10:56;;;;;;;53.45;22.75;;;;;;;-0.30;100.00;98989.00;1658197;84;21181;-72
2021/12/06 08:13:27;;;;;;;64.00;23.90;;;;;;;-0.27;100.00;98985.25;1669116;84;21524;-71
2021/12/06 08:16:02;;;;;;;54.00;23.05;;;;;;;-0.24;100.00;98977.99;1646124;85;21125;-71
2021/12/06 08:18:35;;;;;;;63.00;24.90;;;;;;;-0.23;100.00;98974.22;1654284;85;20862;-75
2021/12/06 08:21:05;;;;;;;56.55;24.23;;;;;;;-0.20;100.00;98971.01;1656556;85;20948;-72
2021/12/06 08:23:37;;;;;;;60.20;23.55;;;;;;;-0.17;100.00;98970.48;1659471;84;21437;-77
2021/12/06 08:26:06;;;;;;;53.70;22.58;;;;;;;-0.12;100.00;98973.22;1660192;85;21021;-73
2021/12/06 08:28:38;;;;;;;53.00;23.18;;;;;;;-0.09;100.00;98970.55;1657414;85;21224;-73
2021/12/06 08:31:11;;;;;;;55.55;23.40;;;;;;;-0.06;100.00;98974.88;1664539;84;21053;-68
2021/12/06 08:33:37;;;;;;;;;;;;;;;-0.06;100.00;98973.53;1666405;85;20886;-77
2021/12/06 08:36:05;;;;;;;52.78;22.73;;;;;;;-0.05;100.00;98968.95;1662833;84;20156;-81
2021/12/06 08:38:36;;;;;;;60.45;25.00;;;;;;;0.00;100.00;98957.62;1666293;84;20981;-77
2021/12/06 08:41:10;;;;;;;54.88;21.40;;;;;;;0.00;100.00;98955.48;1662497;84;21142;-72
2021/12/06 08:43:41;;;;;;;66.28;24.92;;;;;;;0.00;100.00;98960.89;1629489;86;21531;-72
2021/12/06 08:46:15;;;;;;;56.68;23.83;;;;;;;-0.02;100.00;98950.35;1630811;86;21530;-76
2021/12/06 08:48:46;;;;;;;56.92;21.62;;;;;;;0.01;100.00;98962.48;1625589;86;21045;-89
2021/12/06 08:51:19;;;;;;;57.08;24.10;;;;;;;0.01;100.00;98957.08;1630342;86;21051;-85
2021/12/06 08:53:47;;;;;;;58.73;22.65;;;;;;;0.00;100.00;98952.22;1633200;86;21158;-87
2021/12/06 08:56:17;;;;;;;59.20;23.50;;;;;;;0.01;100.00;98934.14;1639440;86;21599;-83
2021/12/06 08:58:50;;;;;;;61.85;25.02;;;;;;;0.05;100.00;98932.55;1659015;84;21004;-78
2021/12/06 09:01:20;;;;;;;;;;;;;;;0.05;100.00;98936.59;1663712;84;20985;-76
2021/12/06 09:03:49;;;;;;;50.00;21.70;;;;;;;0.07;100.00;98940.38;1657582;85;20144;-76
2021/12/06 09:06:21;;;;;;;61.20;25.10;;;;;;;0.08;100.00;98932.56;1660648;84;21123;-74
2021/12/06 09:08:55;;;;;;;53.80;21.42;;;;;;;0.07;100.00;98929.05;1641029;85;21059;-78
2021/12/06 09:11:27;;;;;;;50.20;21.97;;;;;;;0.07;100.00;98928.23;1662595;84;21040;-70
2021/12/06 09:13:56;;;;;;;53.73;20.67;;;;;;;0.04;100.00;98925.52;1666215;85;21030;-69
2021/12/06 09:16:23;;;;;;;47.05;20.32;;;;;;;0.03;100.00;98924.44;1661023;85;21017;-72
2021/12/06 09:18:58;;;;;;;45.33;20.12;;;;;;;0.01;100.00;98919.30;1654466;85;21513;-73
2021/12/06 09:21:26;;;;;;;48.58;21.73;;;;;;;0.00;100.00;98916.36;1671498;84;21504;-75
2021/12/06 09:23:55;;;;;;;52.98;21.85;;;;;;;-0.01;100.00;98909.34;1675551;84;21606;-79
2021/12/06 09:26:25;;;;;;;47.88;20.77;;;;;;;0.01;100.00;98905.81;1661767;85;21084;-86
2021/12/06 09:28:54;;;;;;;49.90;20.50;;;;;;;0.03;100.00;98905.55;1646311;85;20996;-81
2021/12/06 09:31:27;;;;;;;47.15;20.12;;;;;;;0.05;100.00;98907.45;1633511;86;21155;-74
2021/12/06 09:33:58;;;;;;;51.18;23.50;;;;;;;0.05;100.00;98909.61;1652834;85;25268;-73
2021/12/06 09:36:29;;;;;;;56.30;25.20;;;;;;;0.06;100.00;98903.67;1666423;85;21068;-73
2021/12/06 09:39:00;;;;;;;51.02;21.48;;;;;;;0.09;100.00;98893.70;1651250;85;21084;-74
2021/12/06 09:41:35;;;;;;;56.55;22.42;;;;;;;0.11;100.00;98892.91;1654195;85;21108;-72
2021/12/06 09:44:04;;;;;;;50.40;19.95;;;;;;;0.15;100.00;98894.81;1657698;85;21162;-75
2021/12/06 09:46:36;;;;;;;56.50;21.07;;;;;;;0.17;100.00;98894.02;1602780;87;20922;-74
2021/12/06 09:49:14;;;;;;;47.08;19.87;;;;;;;0.21;100.00;98890.25;1647176;84;21064;-77
2021/12/06 09:51:45;;;;;;;57.75;22.77;;;;;;;0.26;100.00;98882.17;1661718;85;21008;-78
2021/12/06 09:54:18;;;;;;;51.33;22.37;;;;;;;0.32;100.00;98871.13;1665782;84;20914;-78
2021/12/06 09:56:53;;;;;;;56.42;23.65;;;;;;;0.40;100.00;98862.23;1676279;84;20993;-78
2021/12/06 09:59:25;;;;;;;64.70;28.12;;;;;;;0.45;100.00;98857.66;1650889;84;21201;-79
2021/12/06 10:02:06;;;;;;;96.12;32.95;;;;;;;0.48;100.00;98845.52;1676913;84;21557;-83
2021/12/06 10:04:44;;;;;;;49.48;20.65;;;;;;;0.48;100.00;98840.12;1634124;86;21077;-70
2021/12/06 10:07:10;;;;;;;48.50;19.80;;;;;;;0.55;100.00;98846.89;1627651;87;21493;-73
2021/12/06 10:09:39;;;;;;;41.92;17.52;;;;;;;0.57;100.00;98846.08;1643730;85;21137;-73
2021/12/06 10:12:09;;;;;;;46.35;19.62;;;;;;;0.55;100.00;98849.59;1662659;85;20922;-75
2021/12/06 10:14:39;;;;;;;46.33;19.98;;;;;;;0.55;100.00;98849.59;1656197;85;20965;-74
2021/12/06 10:17:07;;;;;;;38.45;17.92;;;;;;;0.56;100.00;98867.41;1662740;84;21127;-75
2021/12/06 10:19:36;;;;;;;39.18;17.17;;;;;;;0.54;100.00;98880.91;1656482;85;21072;-75
2021/12/06 10:22:05;;;;;;;42.40;17.62;;;;;;;0.49;100.00;98872.80;1665735;85;21519;-79
2021/12/06 10:24:35;;;;;;;37.05;16.10;;;;;;;0.44;100.00;98874.94;1663150;85;21557;-76
2021/12/06 10:27:13;;;;;;;41.10;18.35;;;;;;;0.42;100.00;98870.34;1657107;85;21570;-76
2021/12/06 10:29:47;;;;;;;42.23;18.00;;;;;;;0.38;100.00;98861.16;1658251;85;20982;-77
2021/12/06 10:32:25;;;;;;;37.90;16.42;;;;;;;0.34;100.00;98851.96;1658015;85;21060;-80
2021/12/06 10:35:01;;;;;;;41.23;17.82;;;;;;;0.35;100.00;98857.63;1669367;84;21201;-76
2021/12/06 10:37:54;;;;;;;36.88;16.40;;;;;;;0.32;100.00;98864.38;1653460;84;20998;-81
2021/12/06 10:40:30;;;;;;;42.23;17.90;;;;;;;0.31;100.00;98865.45;1657930;85;21035;-72
2021/12/06 10:43:09;;;;;;;44.63;19.20;;;;;;;0.31;100.00;98870.04;1614919;87;20944;-74
2021/12/06 10:45:42;;;;;;;72.35;31.07;;;;;;;0.30;100.00;98870.58;1619976;88;20946;-74
2021/12/06 10:48:31;;;;;;;60.03;27.40;;;;;;;0.31;100.00;98871.39;1641111;86;21149;-74
2021/12/06 10:51:10;;;;;;;57.93;25.02;;;;;;;0.31;100.00;98869.50;1603807;85;21050;-75
2021/12/06 10:53:57;;;;;;;47.00;20.82;;;;;;;0.31;100.00;98861.41;1640155;86;20974;-74
2021/12/06 10:56:25;;;;;;;39.13;18.12;;;;;;;0.32;100.00;98859.52;1632327;86;21004;-74
2021/12/06 10:58:56;;;;;;;47.67;20.48;;;;;;;0.31;100.00;98857.89;1629841;86;21467;-73
2021/12/06 11:01:32;;;;;;;43.52;19.12;;;;;;;0.27;100.00;98849.51;1637524;86;21724;-74
2021/12/06 11:04:05;;;;;;;43.85;20.60;;;;;;;0.24;100.00;98840.59;1630015;86;21064;-74
2021/12/06 11:06:44;;;;;;;44.27;20.85;;;;;;;0.25;100.00;98840.05;1634717;86;21016;-74
2021/12/06 11:09:16;;;;;;;99.35;46.48;;;;;;;0.25;100.00;98840.05;1632361;86;21065;-73
2021/12/06 11:11:49;;;;;;;83.00;38.58;;;;;;;0.24;100.00;98839.78;1629456;86;21065;-73
2021/12/06 11:14:24;;;;;;;54.63;28.35;;;;;;;0.23;100.00;98834.11;1630975;86;21984;-73
2021/12/06 11:16:57;;;;;;;43.52;20.50;;;;;;;0.23;100.00;98830.88;1633748;86;21048;-73
2021/12/06 11:19:29;;;;;;;48.85;22.30;;;;;;;0.24;100.00;98826.28;1630974;86;21024;-73
2021/12/06 11:22:17;;;;;;;41.83;19.57;;;;;;;0.24;100.00;98825.74;1626002;86;20986;-73
2021/12/06 11:24:51;;;;;;;46.53;19.20;;;;;;;0.23;100.00;98816.56;1631854;86;21554;-73
2021/12/06 11:27:32;;;;;;;47.50;20.80;;;;;;;0.23;100.00;98821.96;1614866;87;21508;-73
2021/12/06 11:30:11;;;;;;;49.63;21.65;;;;;;;0.24;100.00;98822.23;1630150;86;21111;-73
2021/12/06 11:32:46;;;;;;;46.18;21.33;;;;;;;0.24;100.00;98815.48;1631275;86;20929;-73
2021/12/06 11:35:26;;;;;;;50.48;22.13;;;;;;;0.22;100.00;98818.45;1629046;86;21080;-73
2021/12/06 11:38:01;;;;;;;57.90;25.10;;;;;;;0.22;100.00;98820.34;1645728;85;21247;-73
2021/12/06 11:40:35;;;;;;;48.73;22.30;;;;;;;0.25;100.00;98821.16;1607933;87;21212;-73
2021/12/06 11:43:11;;;;;;;48.68;22.00;;;;;;;0.26;100.00;98821.43;1625224;86;20999;-73